Main page
METAR-TAF:

METAR-TAF

Airports :

Colmenar Viejo, Spain

latitude: 40-39N, longitude: 003-44W, elevation: -999 m

Current weather observation

The report was made 50 minutes ago, at 16:00 UTC
Wind 8 kt from the South/Southwest
Temperature 29°C
Humidity 16%
Pressure 1017 hPa
Visibility 10 km or more
Few clouds at a height of 5000 ft

METAR: LECV 221600Z 21008KT 9999 FEW050 29/01 Q1017

Time: 18:50 (16:50 UTC)

Forecast

The report was made 2 hours and 50 minutes ago, at 14:00 UTC
Forecast valid from 22 at 15 UTC to 22 at 24 UTC
Wind 10 kt from the Southwest
Visibility 10 km or more
no clouds below 1500 m and no cumulonimbus
Probability 40% :
Temporary
from 22 at 15 UTC to 22 at 19 UTC
Wind 15 kt from the Southwest with gusts up to 25 kt
Becoming
from 22 at 20 UTC to 22 at 22 UTC
Wind 5 kt from variable directions

TAF: LECV 221400Z 2215/2224 23010KT CAVOK PROB40 TEMPO 2215/2219 23015G25KT BECMG 2220/2222 VRB05KT

Weather observations and forecasts of more than 4000 airports (METAR and TAF reports).

The available stations are represented by yellow and red dots on the map.

Hover mouse over dot to see the name of the station.

Then click to see weather observations and forecasts.

To change the map : click on the green buttons with a black cross to zoom in, on the green button with a dash to zoom out, or on the green arrows for adjacent maps.


METAR-TAF: